sensor_id;sensor_type;location;lat;lon;timestamp;pressure;altitude;pressure_sealevel;temperature;humidity
12624;BME280;6377;42.836;23.998;2023-09-30T00:01:29;96048.03;;;16.33;85.64
12624;BME280;6377;42.836;23.998;2023-09-30T00:03:57;96087.94;;;16.54;85.63
12624;BME280;6377;42.836;23.998;2023-09-30T00:06:26;96122.63;;;16.67;85.33
12624;BME280;6377;42.836;23.998;2023-09-30T00:08:54;96082.94;;;16.38;86.54
12624;BME280;6377;42.836;23.998;2023-09-30T00:11:22;96084.59;;;16.39;86.55
12624;BME280;6377;42.836;23.998;2023-09-30T00:13:50;96095.06;;;16.34;86.62
12624;BME280;6377;42.836;23.998;2023-09-30T00:16:18;96086.66;;;16.44;86.79
12624;BME280;6377;42.836;23.998;2023-09-30T00:18:45;96105.16;;;16.52;86.76
12624;BME280;6377;42.836;23.998;2023-09-30T00:21:12;96099.22;;;16.63;85.81
12624;BME280;6377;42.836;23.998;2023-09-30T00:23:40;96086.50;;;16.58;85.66
12624;BME280;6377;42.836;23.998;2023-09-30T00:26:08;96007.59;;;16.16;85.33
12624;BME280;6377;42.836;23.998;2023-09-30T00:28:35;96106.63;;;16.74;85.05
12624;BME280;6377;42.836;23.998;2023-09-30T00:31:08;96133.13;;;17.02;84.42
12624;BME280;6377;42.836;23.998;2023-09-30T00:33:36;96095.09;;;16.80;84.04
12624;BME280;6377;42.836;23.998;2023-09-30T00:36:08;96044.34;;;16.47;83.53
12624;BME280;6377;42.836;23.998;2023-09-30T00:38:36;96049.69;;;16.47;82.92
12624;BME280;6377;42.836;23.998;2023-09-30T00:41:03;96126.94;;;16.88;84.46
12624;BME280;6377;42.836;23.998;2023-09-30T00:43:31;96089.53;;;16.49;86.74
12624;BME280;6377;42.836;23.998;2023-09-30T00:46:02;96120.81;;;16.81;86.46
12624;BME280;6377;42.836;23.998;2023-09-30T00:48:33;96059.34;;;16.42;85.94
12624;BME280;6377;42.836;23.998;2023-09-30T00:51:01;96096.56;;;16.63;85.92
12624;BME280;6377;42.836;23.998;2023-09-30T00:53:29;96061.59;;;16.38;87.23
12624;BME280;6377;42.836;23.998;2023-09-30T00:55:57;96062.84;;;16.49;86.90
12624;BME280;6377;42.836;23.998;2023-09-30T00:58:26;96097.97;;;16.65;86.48
12624;BME280;6377;42.836;23.998;2023-09-30T01:00:56;96077.00;;;16.49;87.05
12624;BME280;6377;42.836;23.998;2023-09-30T01:03:23;96072.94;;;16.60;85.85
12624;BME280;6377;42.836;23.998;2023-09-30T01:05:52;95969.41;;;15.96;85.73
12624;BME280;6377;42.836;23.998;2023-09-30T01:08:21;96078.06;;;16.61;85.97
12624;BME280;6377;42.836;23.998;2023-09-30T01:10:48;96064.72;;;16.55;86.30
12624;BME280;6377;42.836;23.998;2023-09-30T01:13:16;96102.50;;;16.85;86.23
12624;BME280;6377;42.836;23.998;2023-09-30T01:15:43;96062.03;;;16.68;85.49
12624;BME280;6377;42.836;23.998;2023-09-30T01:18:12;96036.16;;;16.55;84.94
12624;BME280;6377;42.836;23.998;2023-09-30T01:20:40;96065.13;;;16.78;84.46
12624;BME280;6377;42.836;23.998;2023-09-30T01:23:08;96090.59;;;16.94;84.40
12624;BME280;6377;42.836;23.998;2023-09-30T01:25:38;96076.22;;;16.82;84.15
12624;BME280;6377;42.836;23.998;2023-09-30T01:28:08;96065.72;;;16.87;83.90
12624;BME280;6377;42.836;23.998;2023-09-30T01:30:36;96078.25;;;16.93;83.54
12624;BME280;6377;42.836;23.998;2023-09-30T01:33:03;96070.22;;;16.93;83.29
12624;BME280;6377;42.836;23.998;2023-09-30T01:35:33;96059.97;;;16.90;82.70
12624;BME280;6377;42.836;23.998;2023-09-30T01:38:00;96068.78;;;16.97;82.98
12624;BME280;6377;42.836;23.998;2023-09-30T01:40:29;96019.50;;;16.66;82.87
12624;BME280;6377;42.836;23.998;2023-09-30T01:42:56;96051.94;;;16.83;83.36
12624;BME280;6377;42.836;23.998;2023-09-30T01:45:24;96057.94;;;16.72;84.61
12624;BME280;6377;42.836;23.998;2023-09-30T01:47:51;96058.53;;;16.67;85.19
12624;BME280;6377;42.836;23.998;2023-09-30T01:50:18;96057.09;;;16.65;85.68
12624;BME280;6377;42.836;23.998;2023-09-30T01:52:46;96054.84;;;16.62;85.44
12624;BME280;6377;42.836;23.998;2023-09-30T01:55:13;96054.44;;;16.65;85.83
12624;BME280;6377;42.836;23.998;2023-09-30T01:57:42;96053.81;;;16.43;86.41
12624;BME280;6377;42.836;23.998;2023-09-30T02:00:09;96060.53;;;16.13;90.05
12624;BME280;6377;42.836;23.998;2023-09-30T02:02:38;96091.16;;;16.17;93.01
12624;BME280;6377;42.836;23.998;2023-09-30T02:05:06;96038.53;;;15.85;93.37
12624;BME280;6377;42.836;23.998;2023-09-30T02:07:34;96049.00;;;15.86;93.82
12624;BME280;6377;42.836;23.998;2023-09-30T02:10:01;96020.66;;;15.72;94.07
12624;BME280;6377;42.836;23.998;2023-09-30T02:12:28;96052.09;;;15.90;94.43
12624;BME280;6377;42.836;23.998;2023-09-30T02:14:58;96095.22;;;16.13;94.57
12624;BME280;6377;42.836;23.998;2023-09-30T02:17:25;96064.34;;;15.64;96.71
12624;BME280;6377;42.836;23.998;2023-09-30T02:19:52;96040.63;;;15.42;98.48
12624;BME280;6377;42.836;23.998;2023-09-30T02:22:20;96058.53;;;15.54;98.97
12624;BME280;6377;42.836;23.998;2023-09-30T02:24:49;96051.19;;;15.63;98.45
12624;BME280;6377;42.836;23.998;2023-09-30T02:27:16;96108.34;;;16.01;95.64
12624;BME280;6377;42.836;23.998;2023-09-30T02:29:44;96084.09;;;15.90;96.23
12624;BME280;6377;42.836;23.998;2023-09-30T02:32:12;96048.72;;;15.68;96.72
12624;BME280;6377;42.836;23.998;2023-09-30T02:34:40;96061.28;;;15.81;95.30
12624;BME280;6377;42.836;23.998;2023-09-30T02:37:08;96098.31;;;16.10;95.65
12624;BME280;6377;42.836;23.998;2023-09-30T02:39:36;96026.38;;;15.69;94.91
12624;BME280;6377;42.836;23.998;2023-09-30T02:42:04;96066.47;;;15.95;92.21
12624;BME280;6377;42.836;23.998;2023-09-30T02:44:31;96038.03;;;15.55;93.07
12624;BME280;6377;42.836;23.998;2023-09-30T02:46:58;96060.41;;;15.60;94.00
12624;BME280;6377;42.836;23.998;2023-09-30T02:49:27;96101.44;;;15.66;97.22
12624;BME280;6377;42.836;23.998;2023-09-30T02:51:54;96062.34;;;15.39;96.55
12624;BME280;6377;42.836;23.998;2023-09-30T02:54:22;96035.56;;;15.12;99.58
12624;BME280;6377;42.836;23.998;2023-09-30T02:56:49;96052.47;;;15.26;99.07
12624;BME280;6377;42.836;23.998;2023-09-30T02:59:17;96084.34;;;15.47;100.00
12624;BME280;6377;42.836;23.998;2023-09-30T03:01:47;96108.69;;;15.79;99.46
12624;BME280;6377;42.836;23.998;2023-09-30T03:04:15;96014.72;;;15.23;98.11
12624;BME280;6377;42.836;23.998;2023-09-30T03:06:46;96043.38;;;15.55;97.65
12624;BME280;6377;42.836;23.998;2023-09-30T03:09:15;96057.13;;;15.65;95.82
12624;BME280;6377;42.836;23.998;2023-09-30T03:11:42;96069.63;;;15.58;95.97
12624;BME280;6377;42.836;23.998;2023-09-30T03:14:10;96095.09;;;15.74;95.00
12624;BME280;6377;42.836;23.998;2023-09-30T03:16:39;96058.03;;;15.44;95.97
12624;BME280;6377;42.836;23.998;2023-09-30T03:19:08;96066.72;;;15.53;95.68
12624;BME280;6377;42.836;23.998;2023-09-30T03:21:37;96095.94;;;15.74;96.77
12624;BME280;6377;42.836;23.998;2023-09-30T03:24:07;96072.88;;;15.47;93.16
12624;BME280;6377;42.836;23.998;2023-09-30T03:26:35;96040.31;;;15.24;97.19
12624;BME280;6377;42.836;23.998;2023-09-30T03:29:02;96046.13;;;15.34;97.08
12624;BME280;6377;42.836;23.998;2023-09-30T03:31:31;96044.25;;;15.28;95.93
12624;BME280;6377;42.836;23.998;2023-09-30T03:33:58;96055.56;;;15.36;97.16
12624;BME280;6377;42.836;23.998;2023-09-30T03:36:25;96047.97;;;15.33;95.93
12624;BME280;6377;42.836;23.998;2023-09-30T03:38:53;96054.75;;;15.42;96.05
12624;BME280;6377;42.836;23.998;2023-09-30T03:41:26;96080.25;;;15.51;94.12
12624;BME280;6377;42.836;23.998;2023-09-30T03:43:54;96111.34;;;15.79;93.69
12624;BME280;6377;42.836;23.998;2023-09-30T03:46:21;96103.75;;;15.76;90.84
12624;BME280;6377;42.836;23.998;2023-09-30T03:48:48;96098.00;;;15.72;95.88
12624;BME280;6377;42.836;23.998;2023-09-30T03:51:15;96107.66;;;15.73;95.36
12624;BME280;6377;42.836;23.998;2023-09-30T03:53:43;96104.59;;;15.76;94.72
12624;BME280;6377;42.836;23.998;2023-09-30T03:56:11;96107.84;;;15.72;95.38
12624;BME280;6377;42.836;23.998;2023-09-30T03:58:40;95936.84;;;14.73;95.44
12624;BME280;6377;42.836;23.998;2023-09-30T04:01:08;96090.16;;;15.70;94.16
12624;BME280;6377;42.836;23.998;2023-09-30T04:03:37;96101.53;;;15.92;91.77
12624;BME280;6377;42.836;23.998;2023-09-30T04:06:05;95946.09;;;14.84;93.17
12624;BME280;6377;42.836;23.998;2023-09-30T04:08:33;95966.53;;;14.77;87.39
12624;BME280;6377;42.836;23.998;2023-09-30T04:11:01;96105.28;;;15.50;94.11
12624;BME280;6377;42.836;23.998;2023-09-30T04:13:28;96112.53;;;15.35;95.82
12624;BME280;6377;42.836;23.998;2023-09-30T04:15:57;96106.66;;;15.46;93.85
12624;BME280;6377;42.836;23.998;2023-09-30T04:18:24;96015.50;;;14.76;94.46
12624;BME280;6377;42.836;23.998;2023-09-30T04:20:52;96109.09;;;15.41;97.94
12624;BME280;6377;42.836;23.998;2023-09-30T04:23:19;96130.91;;;15.51;95.44
12624;BME280;6377;42.836;23.998;2023-09-30T04:25:46;96116.97;;;15.56;95.00
12624;BME280;6377;42.836;23.998;2023-09-30T04:28:13;96102.63;;;15.57;93.26
12624;BME280;6377;42.836;23.998;2023-09-30T04:30:41;96063.72;;;15.28;92.20
12624;BME280;6377;42.836;23.998;2023-09-30T04:33:10;96119.44;;;15.51;91.10
12624;BME280;6377;42.836;23.998;2023-09-30T04:35:38;96107.34;;;15.21;92.26
12624;BME280;6377;42.836;23.998;2023-09-30T04:38:05;96107.09;;;15.15;96.24
12624;BME280;6377;42.836;23.998;2023-09-30T04:40:33;96118.28;;;15.32;95.80
12624;BME280;6377;42.836;23.998;2023-09-30T04:43:00;96125.28;;;15.40;94.73
12624;BME280;6377;42.836;23.998;2023-09-30T04:45:27;96037.50;;;14.91;94.65
12624;BME280;6377;42.836;23.998;2023-09-30T04:47:54;96132.75;;;15.51;94.47
12624;BME280;6377;42.836;23.998;2023-09-30T04:50:24;96111.34;;;15.38;92.43
12624;BME280;6377;42.836;23.998;2023-09-30T04:52:51;96115.25;;;15.42;89.73
12624;BME280;6377;42.836;23.998;2023-09-30T04:55:19;95999.94;;;14.24;88.92
12624;BME280;6377;42.836;23.998;2023-09-30T04:57:46;96134.63;;;15.23;97.17
12624;BME280;6377;42.836;23.998;2023-09-30T05:00:14;96132.59;;;15.25;95.93
12624;BME280;6377;42.836;23.998;2023-09-30T05:02:43;96139.63;;;15.39;95.09
12624;BME280;6377;42.836;23.998;2023-09-30T05:05:11;96137.25;;;15.50;94.00
12624;BME280;6377;42.836;23.998;2023-09-30T05:07:41;96120.47;;;15.50;92.32
12624;BME280;6377;42.836;23.998;2023-09-30T05:10:09;96121.22;;;15.44;91.99
12624;BME280;6377;42.836;23.998;2023-09-30T05:12:38;96091.66;;;15.32;91.96
12624;BME280;6377;42.836;23.998;2023-09-30T05:15:07;96134.03;;;15.55;89.85
12624;BME280;6377;42.836;23.998;2023-09-30T05:17:34;96144.88;;;15.53;90.68
12624;BME280;6377;42.836;23.998;2023-09-30T05:20:02;96152.84;;;15.47;88.98
12624;BME280;6377;42.836;23.998;2023-09-30T05:22:32;96151.72;;;15.41;93.04
12624;BME280;6377;42.836;23.998;2023-09-30T05:25:01;96159.72;;;15.41;93.38
12624;BME280;6377;42.836;23.998;2023-09-30T05:27:28;95982.19;;;14.31;93.54
12624;BME280;6377;42.836;23.998;2023-09-30T05:29:55;96153.31;;;15.57;93.31
12624;BME280;6377;42.836;23.998;2023-09-30T05:32:22;96010.78;;;14.78;90.60
12624;BME280;6377;42.836;23.998;2023-09-30T05:34:52;96142.47;;;15.65;91.07
12624;BME280;6377;42.836;23.998;2023-09-30T05:37:20;96151.13;;;15.74;90.99
12624;BME280;6377;42.836;23.998;2023-09-30T05:39:47;96088.31;;;15.30;89.71
12624;BME280;6377;42.836;23.998;2023-09-30T05:42:16;96157.34;;;15.87;86.85
12624;BME280;6377;42.836;23.998;2023-09-30T05:44:44;96149.53;;;15.79;90.00
12624;BME280;6377;42.836;23.998;2023-09-30T05:47:11;96155.91;;;15.85;88.20
12624;BME280;6377;42.836;23.998;2023-09-30T05:49:39;96158.19;;;15.94;88.51
12624;BME280;6377;42.836;23.998;2023-09-30T05:52:07;96158.63;;;16.04;85.71
12624;BME280;6377;42.836;23.998;2023-09-30T05:54:34;96160.50;;;16.10;86.09
12624;BME280;6377;42.836;23.998;2023-09-30T05:57:02;96152.34;;;16.25;84.16
12624;BME280;6377;42.836;23.998;2023-09-30T05:59:31;96132.53;;;15.93;81.53
12624;BME280;6377;42.836;23.998;2023-09-30T06:01:58;96148.41;;;16.14;83.10
12624;BME280;6377;42.836;23.998;2023-09-30T06:04:26;96159.31;;;16.19;82.96
12624;BME280;6377;42.836;23.998;2023-09-30T06:06:53;96154.16;;;16.18;84.58
12624;BME280;6377;42.836;23.998;2023-09-30T06:09:20;96160.34;;;16.25;84.64
12624;BME280;6377;42.836;23.998;2023-09-30T06:11:50;96157.91;;;16.37;82.30
12624;BME280;6377;42.836;23.998;2023-09-30T06:14:17;96119.22;;;16.06;80.90
12624;BME280;6377;42.836;23.998;2023-09-30T06:16:46;96127.56;;;15.84;80.58
12624;BME280;6377;42.836;23.998;2023-09-30T06:19:14;96170.38;;;16.16;81.00
12624;BME280;6377;42.836;23.998;2023-09-30T06:21:41;96126.97;;;15.88;83.53
12624;BME280;6377;42.836;23.998;2023-09-30T06:24:08;96162.81;;;16.20;83.78
12624;BME280;6377;42.836;23.998;2023-09-30T06:26:36;96173.06;;;16.30;82.51
12624;BME280;6377;42.836;23.998;2023-09-30T06:29:03;96165.28;;;16.41;81.74
12624;BME280;6377;42.836;23.998;2023-09-30T06:31:32;96066.00;;;15.72;77.19
12624;BME280;6377;42.836;23.998;2023-09-30T06:34:01;96144.34;;;16.38;79.85
12624;BME280;6377;42.836;23.998;2023-09-30T06:36:29;96179.13;;;16.64;79.57
12624;BME280;6377;42.836;23.998;2023-09-30T06:38:56;96080.47;;;16.17;79.41
12624;BME280;6377;42.836;23.998;2023-09-30T06:41:24;96168.03;;;16.67;77.71
12624;BME280;6377;42.836;23.998;2023-09-30T06:43:51;96168.28;;;16.72;80.31
12624;BME280;6377;42.836;23.998;2023-09-30T06:46:18;96160.03;;;16.80;78.59
12624;BME280;6377;42.836;23.998;2023-09-30T06:48:45;96165.59;;;16.92;77.47
12624;BME280;6377;42.836;23.998;2023-09-30T06:51:14;96095.13;;;16.60;77.16
12624;BME280;6377;42.836;23.998;2023-09-30T06:53:42;96142.34;;;17.06;76.56
12624;BME280;6377;42.836;23.998;2023-09-30T06:56:11;96165.59;;;17.25;75.58
12624;BME280;6377;42.836;23.998;2023-09-30T06:58:38;96168.03;;;17.33;75.81
12624;BME280;6377;42.836;23.998;2023-09-30T07:01:05;96164.13;;;17.42;74.53
12624;BME280;6377;42.836;23.998;2023-09-30T07:03:32;96035.97;;;16.70;72.52
12624;BME280;6377;42.836;23.998;2023-09-30T07:05:59;96020.13;;;16.68;73.03
12624;BME280;6377;42.836;23.998;2023-09-30T07:08:29;96169.81;;;17.78;73.02
12624;BME280;6377;42.836;23.998;2023-09-30T07:10:56;96155.19;;;17.81;72.91
12624;BME280;6377;42.836;23.998;2023-09-30T07:13:23;96170.75;;;18.04;71.93
12624;BME280;6377;42.836;23.998;2023-09-30T07:15:51;96014.69;;;17.08;69.73
12624;BME280;6377;42.836;23.998;2023-09-30T07:18:18;96167.97;;;18.23;69.82
12624;BME280;6377;42.836;23.998;2023-09-30T07:20:45;96107.34;;;17.98;70.83
12624;BME280;6377;42.836;23.998;2023-09-30T07:23:12;96167.88;;;18.43;68.16
12624;BME280;6377;42.836;23.998;2023-09-30T07:25:41;96162.88;;;18.60;67.54
12624;BME280;6377;42.836;23.998;2023-09-30T07:28:08;96163.03;;;18.65;67.96
12624;BME280;6377;42.836;23.998;2023-09-30T07:30:38;96097.50;;;18.29;67.17
12624;BME280;6377;42.836;23.998;2023-09-30T07:33:05;96032.84;;;17.95;65.40
12624;BME280;6377;42.836;23.998;2023-09-30T07:35:33;96166.78;;;18.88;63.99
12624;BME280;6377;42.836;23.998;2023-09-30T07:38:01;96117.34;;;18.84;62.97
12624;BME280;6377;42.836;23.998;2023-09-30T07:40:30;96169.53;;;19.31;64.65
12624;BME280;6377;42.836;23.998;2023-09-30T07:42:59;96140.38;;;19.35;65.60
12624;BME280;6377;42.836;23.998;2023-09-30T07:45:27;96159.97;;;19.60;63.52
12624;BME280;6377;42.836;23.998;2023-09-30T07:47:54;96158.47;;;19.64;62.48
12624;BME280;6377;42.836;23.998;2023-09-30T07:50:21;96157.44;;;19.83;63.06
12624;BME280;6377;42.836;23.998;2023-09-30T07:52:48;96158.72;;;19.99;61.83
12624;BME280;6377;42.836;23.998;2023-09-30T07:55:15;96101.91;;;19.66;60.11
12624;BME280;6377;42.836;23.998;2023-09-30T07:57:43;96141.84;;;20.10;59.85
12624;BME280;6377;42.836;23.998;2023-09-30T08:00:14;96140.31;;;20.32;61.26
12624;BME280;6377;42.836;23.998;2023-09-30T08:02:42;96131.44;;;20.32;57.89
12624;BME280;6377;42.836;23.998;2023-09-30T08:05:10;96153.56;;;20.63;57.10
12624;BME280;6377;42.836;23.998;2023-09-30T08:07:37;96157.22;;;20.81;56.77
12624;BME280;6377;42.836;23.998;2023-09-30T08:10:05;96153.00;;;20.96;57.05
12624;BME280;6377;42.836;23.998;2023-09-30T08:12:38;96152.84;;;21.09;55.31
12624;BME280;6377;42.836;23.998;2023-09-30T08:15:06;96152.16;;;21.26;54.92
12624;BME280;6377;42.836;23.998;2023-09-30T08:17:35;96164.66;;;21.32;53.92
12624;BME280;6377;42.836;23.998;2023-09-30T08:20:03;96153.22;;;21.36;54.74
12624;BME280;6377;42.836;23.998;2023-09-30T08:22:33;96151.94;;;21.50;53.52
12624;BME280;6377;42.836;23.998;2023-09-30T08:25:00;96125.00;;;21.50;54.25
12624;BME280;6377;42.836;23.998;2023-09-30T08:27:27;96151.44;;;21.65;53.11
12624;BME280;6377;42.836;23.998;2023-09-30T08:29:54;96152.16;;;21.72;54.04
12624;BME280;6377;42.836;23.998;2023-09-30T08:32:22;96143.72;;;21.80;54.06
12624;BME280;6377;42.836;23.998;2023-09-30T08:34:50;96150.28;;;21.96;53.93
12624;BME280;6377;42.836;23.998;2023-09-30T08:37:17;96137.81;;;22.06;52.40
12624;BME280;6377;42.836;23.998;2023-09-30T08:39:45;96143.28;;;22.23;52.31
12624;BME280;6377;42.836;23.998;2023-09-30T08:42:12;96139.44;;;22.47;51.12
12624;BME280;6377;42.836;23.998;2023-09-30T08:44:39;96136.91;;;22.69;49.07
12624;BME280;6377;42.836;23.998;2023-09-30T08:47:07;96142.31;;;22.85;47.30
12624;BME280;6377;42.836;23.998;2023-09-30T08:49:37;95963.09;;;21.70;45.44
12624;BME280;6377;42.836;23.998;2023-09-30T08:52:08;96148.47;;;22.98;46.65
12624;BME280;6377;42.836;23.998;2023-09-30T08:54:36;96138.88;;;22.90;46.57
12624;BME280;6377;42.836;23.998;2023-09-30T08:57:04;96079.94;;;22.82;42.62
12624;BME280;6377;42.836;23.998;2023-09-30T08:59:34;96098.41;;;23.23;42.69
12624;BME280;6377;42.836;23.998;2023-09-30T09:02:02;96134.28;;;23.74;42.80
12624;BME280;6377;42.836;23.998;2023-09-30T09:04:29;96076.19;;;23.71;42.27
12624;BME280;6377;42.836;23.998;2023-09-30T09:06:57;96119.25;;;24.21;40.82
12624;BME280;6377;42.836;23.998;2023-09-30T09:09:26;96077.09;;;24.25;39.84
12624;BME280;6377;42.836;23.998;2023-09-30T09:11:53;95975.44;;;23.71;39.12
12624;BME280;6377;42.836;23.998;2023-09-30T09:14:36;96152.75;;;24.95;39.51
12624;BME280;6377;42.836;23.998;2023-09-30T09:17:06;96121.56;;;24.83;39.82
12624;BME280;6377;42.836;23.998;2023-09-30T09:19:33;96094.53;;;24.61;39.35
12624;BME280;6377;42.836;23.998;2023-09-30T09:22:02;96096.19;;;24.67;38.18
12624;BME280;6377;42.836;23.998;2023-09-30T09:24:32;96132.59;;;25.08;37.90
12624;BME280;6377;42.836;23.998;2023-09-30T09:27:07;96122.25;;;25.37;37.91
12624;BME280;6377;42.836;23.998;2023-09-30T09:29:35;96126.00;;;25.63;36.78
12624;BME280;6377;42.836;23.998;2023-09-30T09:32:10;96120.94;;;25.81;36.98
12624;BME280;6377;42.836;23.998;2023-09-30T09:34:38;96114.53;;;26.02;36.40
12624;BME280;6377;42.836;23.998;2023-09-30T09:37:15;96116.28;;;26.24;35.63
12624;BME280;6377;42.836;23.998;2023-09-30T09:39:57;96118.78;;;26.40;35.99
12624;BME280;6377;42.836;23.998;2023-09-30T09:42:26;96115.03;;;26.66;34.46
12624;BME280;6377;42.836;23.998;2023-09-30T09:44:55;96089.53;;;26.57;34.96
12624;BME280;6377;42.836;23.998;2023-09-30T09:47:23;96027.09;;;26.32;34.58
12624;BME280;6377;42.836;23.998;2023-09-30T09:49:51;96111.88;;;27.20;34.46
12624;BME280;6377;42.836;23.998;2023-09-30T09:52:20;96109.97;;;27.46;34.83
12624;BME280;6377;42.836;23.998;2023-09-30T09:54:48;96108.59;;;27.33;33.99
12624;BME280;6377;42.836;23.998;2023-09-30T09:57:18;96110.53;;;27.43;34.46
12624;BME280;6377;42.836;23.998;2023-09-30T09:59:46;96105.84;;;27.78;33.63
12624;BME280;6377;42.836;23.998;2023-09-30T10:02:15;96106.28;;;28.01;33.87
12624;BME280;6377;42.836;23.998;2023-09-30T10:04:44;96094.66;;;27.90;33.03
12624;BME280;6377;42.836;23.998;2023-09-30T10:07:15;96103.13;;;27.78;33.40
12624;BME280;6377;42.836;23.998;2023-09-30T10:09:47;96099.50;;;28.03;33.02
12624;BME280;6377;42.836;23.998;2023-09-30T10:12:18;96097.81;;;28.22;32.49
12624;BME280;6377;42.836;23.998;2023-09-30T10:14:47;96084.41;;;28.41;32.42
12624;BME280;6377;42.836;23.998;2023-09-30T10:17:14;95974.69;;;28.07;33.29
12624;BME280;6377;42.836;23.998;2023-09-30T10:20:03;96094.72;;;28.93;32.16
12624;BME280;6377;42.836;23.998;2023-09-30T10:22:32;96074.22;;;28.57;31.84
12624;BME280;6377;42.836;23.998;2023-09-30T10:24:59;95991.47;;;28.19;31.47
12624;BME280;6377;42.836;23.998;2023-09-30T10:27:37;96072.41;;;28.91;31.27
12624;BME280;6377;42.836;23.998;2023-09-30T10:30:10;96078.03;;;28.02;31.92
12624;BME280;6377;42.836;23.998;2023-09-30T10:33:10;96074.34;;;27.57;31.79
12624;BME280;6377;42.836;23.998;2023-09-30T10:35:46;96079.50;;;27.74;31.64
12624;BME280;6377;42.836;23.998;2023-09-30T10:38:39;96073.56;;;28.31;31.51
12624;BME280;6377;42.836;23.998;2023-09-30T10:41:10;96031.28;;;27.95;31.18
12624;BME280;6377;42.836;23.998;2023-09-30T10:43:42;96072.75;;;28.35;30.97
12624;BME280;6377;42.836;23.998;2023-09-30T10:46:33;96060.75;;;28.80;30.10
12624;BME280;6377;42.836;23.998;2023-09-30T10:49:16;96043.72;;;28.21;29.91
12624;BME280;6377;42.836;23.998;2023-09-30T10:51:44;96067.06;;;28.22;29.34
12624;BME280;6377;42.836;23.998;2023-09-30T10:54:13;96038.28;;;28.21;30.00
12624;BME280;6377;42.836;23.998;2023-09-30T10:56:40;96031.94;;;28.35;28.74
12624;BME280;6377;42.836;23.998;2023-09-30T10:59:08;95950.25;;;27.97;28.21
12624;BME280;6377;42.836;23.998;2023-09-30T11:01:36;95954.53;;;28.52;28.55
12624;BME280;6377;42.836;23.998;2023-09-30T11:04:04;96046.59;;;29.12;28.58
12624;BME280;6377;42.836;23.998;2023-09-30T11:06:33;96047.75;;;29.40;27.36
12624;BME280;6377;42.836;23.998;2023-09-30T11:09:01;96018.66;;;29.35;28.10
12624;BME280;6377;42.836;23.998;2023-09-30T11:11:34;96049.16;;;29.61;27.88
12624;BME280;6377;42.836;23.998;2023-09-30T11:14:01;96046.63;;;29.70;29.07
12624;BME280;6377;42.836;23.998;2023-09-30T11:16:40;96045.91;;;29.88;29.20
12624;BME280;6377;42.836;23.998;2023-09-30T11:19:09;96044.50;;;29.90;27.61
12624;BME280;6377;42.836;23.998;2023-09-30T11:21:36;96028.78;;;29.77;28.61
12624;BME280;6377;42.836;23.998;2023-09-30T11:24:03;96002.13;;;29.22;28.12
12624;BME280;6377;42.836;23.998;2023-09-30T11:26:32;96050.00;;;29.57;28.95
12624;BME280;6377;42.836;23.998;2023-09-30T11:29:05;96034.97;;;29.64;28.29
12624;BME280;6377;42.836;23.998;2023-09-30T11:31:37;95916.88;;;29.45;27.88
12624;BME280;6377;42.836;23.998;2023-09-30T11:34:04;96026.09;;;30.43;27.77
12624;BME280;6377;42.836;23.998;2023-09-30T11:36:34;95913.78;;;29.52;27.25
12624;BME280;6377;42.836;23.998;2023-09-30T11:39:02;96023.38;;;30.20;26.90
12624;BME280;6377;42.836;23.998;2023-09-30T11:41:33;96026.19;;;30.15;27.66
12624;BME280;6377;42.836;23.998;2023-09-30T11:44:04;95993.53;;;29.86;27.22
12624;BME280;6377;42.836;23.998;2023-09-30T11:46:50;96013.06;;;30.17;27.14
12624;BME280;6377;42.836;23.998;2023-09-30T11:49:27;95992.19;;;29.60;27.72
12624;BME280;6377;42.836;23.998;2023-09-30T11:51:55;95976.00;;;29.21;27.91
12624;BME280;6377;42.836;23.998;2023-09-30T11:54:29;95972.72;;;28.90;28.16
12624;BME280;6377;42.836;23.998;2023-09-30T11:56:56;96025.03;;;28.87;28.37
12624;BME280;6377;42.836;23.998;2023-09-30T11:59:24;96015.25;;;28.47;28.86
12624;BME280;6377;42.836;23.998;2023-09-30T12:01:53;96015.78;;;27.95;29.83
12624;BME280;6377;42.836;23.998;2023-09-30T12:04:20;96005.81;;;27.75;29.13
12624;BME280;6377;42.836;23.998;2023-09-30T12:06:48;95946.47;;;27.18;29.90
12624;BME280;6377;42.836;23.998;2023-09-30T12:09:15;95999.69;;;27.45;29.78
12624;BME280;6377;42.836;23.998;2023-09-30T12:11:47;95993.41;;;27.49;29.34
12624;BME280;6377;42.836;23.998;2023-09-30T12:14:14;95906.53;;;27.29;29.58
12624;BME280;6377;42.836;23.998;2023-09-30T12:16:42;95979.81;;;28.13;29.20
12624;BME280;6377;42.836;23.998;2023-09-30T12:19:15;95981.78;;;28.47;29.05
12624;BME280;6377;42.836;23.998;2023-09-30T12:21:44;95930.09;;;28.08;28.76
12624;BME280;6377;42.836;23.998;2023-09-30T12:24:14;95982.59;;;28.47;28.37
12624;BME280;6377;42.836;23.998;2023-09-30T12:26:43;95980.41;;;28.83;28.28
12624;BME280;6377;42.836;23.998;2023-09-30T12:29:14;95975.03;;;29.07;27.92
12624;BME280;6377;42.836;23.998;2023-09-30T12:31:42;95984.38;;;29.29;27.61
12624;BME280;6377;42.836;23.998;2023-09-30T12:34:09;95976.41;;;29.57;27.72
12624;BME280;6377;42.836;23.998;2023-09-30T12:36:38;95950.63;;;29.49;27.05
12624;BME280;6377;42.836;23.998;2023-09-30T12:39:05;95887.34;;;29.05;27.42
12624;BME280;6377;42.836;23.998;2023-09-30T12:41:36;95845.44;;;28.77;27.37
12624;BME280;6377;42.836;23.998;2023-09-30T12:44:03;95965.91;;;29.45;27.41
12624;BME280;6377;42.836;23.998;2023-09-30T12:46:31;95959.38;;;29.46;27.39
12624;BME280;6377;42.836;23.998;2023-09-30T12:49:01;95870.44;;;29.08;28.08
12624;BME280;6377;42.836;23.998;2023-09-30T12:51:28;95946.22;;;29.29;27.61
12624;BME280;6377;42.836;23.998;2023-09-30T12:53:57;95951.88;;;29.33;27.89
12624;BME280;6377;42.836;23.998;2023-09-30T12:56:25;95833.34;;;28.59;27.87
12624;BME280;6377;42.836;23.998;2023-09-30T12:58:52;95913.00;;;29.27;27.68
12624;BME280;6377;42.836;23.998;2023-09-30T13:01:19;95951.53;;;29.63;27.91
12624;BME280;6377;42.836;23.998;2023-09-30T13:03:47;95919.47;;;29.55;26.93
12624;BME280;6377;42.836;23.998;2023-09-30T13:06:14;95945.56;;;29.61;27.13
12624;BME280;6377;42.836;23.998;2023-09-30T13:08:43;95939.25;;;29.42;27.75